ADDS METAR Data INFO
IDs: Format: Raw Decoded Include TAF

Data at: 0104 UTC 24 Jun 2018

PAOT 240053Z 27008KT 10SM FEW041 OVC060 12/07 A3009 RMK AO2 SLP190 T01170072
PAOT 232353Z 27010KT 9SM BKN038 OVC060 12/08 A3009 RMK AO2 SLP189 60000 T01170078 10122 20100 51002
PAOT 232253Z 27008KT 10SM FEW023 FEW040 OVC060 12/07 A3009 RMK AO2 SLP189 T01170072
PAOT 232153Z 29008KT 10SM FEW017 SCT045 OVC060 12/07 A3008 RMK AO2 RAB2054E07 SLP187 P0000 T01170072
PAOT 232053Z 26008KT 10SM FEW021 BKN037 OVC045 11/07 A3008 RMK AO2 RAB08E19 SLP186 P0000 60000 T01110072 53008
PAOT 231953Z 28006KT 10SM FEW010 SCT020 OVC040 11/08 A3007 RMK AO2 RAE08B11E26 SLP183 P0000 T01110083
PAOT 231908Z 08003KT 10SM SCT014 BKN021 OVC034 10/08 A3007 RMK AO2 RAE08 P0000 T01000083
PAOT 231853Z VRB03KT 10SM -RA BKN014 BKN019 OVC026 10/08 A3007 RMK AO2 RAB33 SLP181 P0000 T01000078
PAOT 231753Z 09006KT 10SM FEW012 BKN018 OVC026 10/08 A3006 RMK AO2 RAB15E47 SLP178 P0001 60001 T01000078 10111 20094 51005
PAOT 231653Z 04004KT 10SM BKN014 BKN024 OVC035 11/08 A3005 RMK AO2 SLP176 T01060078
PAOT 231600Z 25004KT 10SM BKN014 BKN024 OVC035 11/08 A3004 RMK AO2 T01110078
PAOT 231553Z 24004KT 10SM FEW017 BKN035 OVC050 11/08 A3004 RMK AO2 SLP174 T01110078
PAOT 231453Z 33003KT 10SM FEW017 OVC035 11/07 A3004 RMK AO2 SLP172 T01060072 51010
PAOT 231353Z AUTO 30006KT 10SM FEW017 BKN038 OVC047 11/08 A3003 RMK AO2 SLP168 T01060078 TSNO
PAOT 231337Z AUTO 28005KT 10SM SCT015 BKN038 OVC048 11/08 A3003 RMK AO2 T01060078 TSNO
PAOT 231306Z AUTO 29005KT 10SM BKN013 OVC036 11/08 A3003 RMK AO2 T01060083 TSNO
PAOT 231253Z AUTO 31004KT 10SM SCT013 OVC035 11/08 A3002 RMK AO2 SLP167 T01060083 TSNO
PAOT 231153Z AUTO 33005KT 10SM FEW012 BKN032 11/08 A3001 RMK AO2 SLP162 60002 70022 T01060083 10117 20106 53006 TSNO
PAOT 231132Z AUTO 31004KT 10SM FEW012 SCT025 OVC030 11/08 A3001 RMK AO2 T01060083 TSNO
PAOT 231111Z AUTO 31005KT 10SM SCT012 BKN026 OVC033 11/08 A3000 RMK AO2 T01060083 TSNO
PAOT 231053Z AUTO 31005KT 10SM SCT012 BKN031 OVC085 11/08 A3000 RMK AO2 RAE24 SLP158 P0000 T01060083 TSNO
PAOT 231050Z AUTO 33007KT 10SM BKN012 BKN031 OVC085 11/08 A3000 RMK AO2 RAE24 P0000 TSNO
PAOT 230953Z AUTO 32008KT 10SM -RA FEW011 OVC037 11/08 A2999 RMK AO2 SLP155 P0001 T01060083 TSNO
PAOT 230937Z AUTO 32007KT 10SM -RA FEW009 OVC035 11/08 A2999 RMK AO2 P0000 T01060083 TSNO
PAOT 230853Z AUTO 29010KT 10SM -RA FEW011 OVC036 11/08 A2998 RMK AO2 RAB0757 SLP152 P0001 60001 T01060083 401780106 53016 TSNO
PAOT 230753Z AUTO 31010KT 10SM SCT009 BKN043 OVC070 11/09 A2996 RMK AO2 RAE46 SLP146 P0000 T01110089 TSNO
PAOT 230700Z 30011KT 10SM -RA SCT009 BKN043 OVC055 11/09 A2995 RMK AO2 P0000 T01110094
PAOT 230653Z 29012KT 10SM -RA BKN009 BKN044 OVC055 11/09 A2995 RMK AO2 RAB53 SLP140 P0000 T01110094
PAOT 230630Z 31010KT 10SM BKN009 OVC055 12/09 A2994 RMK AO2 T01170094
PAOT 230607Z 30011KT 10SM FEW009 OVC055 12/09 A2994 RMK AO2 T01170094
PAOT 230553Z 31010KT 10SM BKN047 OVC055 12/09 A2993 RMK AO2 SLP136 T01170094 10144 20117 51009
PAOT 230528Z 32011KT 10SM SCT014 OVC038 12/09 A2992 RMK AO2 T01170094
PAOT 230509Z 30012KT 10SM BKN014 OVC039 12/09 A2993 RMK AO2 T01170094
PAOT 230453Z 30012KT 10SM BKN016 OVC041 12/09 A2993 RMK AO2 SLP135 T01170094
PAOT 230444Z 29013KT 10SM BKN018 OVC039 12/09 A2993 RMK AO2 T01170094
PAOT 230353Z 29014KT 10SM FEW037 BKN110 12/09 A2992 RMK AO2 SLP130 T01220094
PAOT 230253Z 27012KT 10SM FEW100 13/10 A2990 RMK AO2 SLP126 T01330100 53012
PAOT 230153Z 30009KT 10SM FEW070 13/10 A2989 RMK AO2 SLP120 T01330100
PAOT 230053Z 29007KT 10SM BKN070 14/11 A2988 RMK AO2 SLP119 T01440111
PAOT 222353Z 25007KT 10SM FEW040 BKN250 14/12 A2987 RMK AO2 SLP115 60001 T01440117 10150 20117 51009
PAOT 222253Z 24005KT 10SM CLR 14/12 A2986 RMK AO2 SLP111 T01390117
PAOT 222153Z 21008KT 10SM BKN049 14/11 A2986 RMK AO2 SLP110 T01390111
PAOT 222053Z 22005KT 10SM FEW007 BKN180 13/12 A2984 RMK AO2 SLP105 60001 T01330117 51013
PAOT 221953Z 19005KT 10SM FEW007 13/11 A2983 RMK AO2 RAE22 SLP102 P0000 T01280111
PAOT 221925Z 17004KT 10SM SCT006 BKN050 BKN060 13/12 A2983 RMK AO2 RAE22 P0000 T01280117
PAOT 221853Z 21003KT 9SM -RA BKN065 OVC080 12/11 A2982 RMK AO2 SLP098 P0001 T01170106
PAOT 221753Z 23004KT 7SM -RA OVC080 12/10 A2980 RMK AO2 SLP092 P0002 60019 T01220100 10167 20117 51020
PAOT 221653Z 23004KT 8SM -RA OVC075 12/11 A2979 RMK AO2 SLP088 P0007 T01220106
PAOT 221553Z 21005KT 7SM -RA FEW065 OVC080 12/11 A2978 RMK AO2 RAE01B17 SLP085 P0002 T01220106
PAOT 221453Z 26014KT 10SM -RA OVC085 12/09 A2974 RMK AO2 SLP073 P0004 60008 T01220094 50018
PAOT 221353Z AUTO 22012KT 6SM -RA BR SCT070 OVC085 12/10 A2975 RMK AO2 SLP074 P0003 T01220100 TSNO